sensor_id;sensor_type;location;lat;lon;timestamp;temperature;humidity
33460;DHT22;19795;53.160;6.612;2023-02-10T05:06:46;0.20;99.90
33460;DHT22;19795;53.160;6.612;2023-02-10T05:09:12;0.10;99.90
33460;DHT22;19795;53.160;6.612;2023-02-10T05:11:38;0.10;99.90
33460;DHT22;19795;53.160;6.612;2023-02-10T05:16:53;0.00;99.90
33460;DHT22;19795;53.160;6.612;2023-02-10T05:19:18;-0.10;99.90
33460;DHT22;19795;53.160;6.612;2023-02-10T05:21:44;-0.10;99.90
33460;DHT22;19795;53.160;6.612;2023-02-10T05:24:10;-0.20;99.90
33460;DHT22;19795;53.160;6.612;2023-02-10T05:26:36;-0.20;99.90
33460;DHT22;19795;53.160;6.612;2023-02-10T05:29:01;-0.20;99.90
33460;DHT22;19795;53.160;6.612;2023-02-10T05:31:27;-0.20;99.90
33460;DHT22;19795;53.160;6.612;2023-02-10T05:33:53;-0.10;99.90
33460;DHT22;19795;53.160;6.612;2023-02-10T05:36:19;0.00;99.90
33460;DHT22;19795;53.160;6.612;2023-02-10T05:38:45;0.00;99.90
33460;DHT22;19795;53.160;6.612;2023-02-10T05:41:31;0.10;99.90
33460;DHT22;19795;53.160;6.612;2023-02-10T05:43:56;0.20;99.90
33460;DHT22;19795;53.160;6.612;2023-02-10T05:46:22;0.20;99.90
33460;DHT22;19795;53.160;6.612;2023-02-10T05:48:48;0.20;99.90
33460;DHT22;19795;53.160;6.612;2023-02-10T05:51:13;0.20;99.90
33460;DHT22;19795;53.160;6.612;2023-02-10T05:53:39;0.30;99.90
33460;DHT22;19795;53.160;6.612;2023-02-10T05:56:05;0.40;99.90
33460;DHT22;19795;53.160;6.612;2023-02-10T05:58:30;0.50;99.90
33460;DHT22;19795;53.160;6.612;2023-02-10T06:00:58;0.50;99.90
33460;DHT22;19795;53.160;6.612;2023-02-10T06:03:24;0.60;99.90
33460;DHT22;19795;53.160;6.612;2023-02-10T06:05:50;0.60;99.90
33460;DHT22;19795;53.160;6.612;2023-02-10T06:08:16;0.70;99.90
33460;DHT22;19795;53.160;6.612;2023-02-10T06:10:42;1.10;99.90
33460;DHT22;19795;53.160;6.612;2023-02-10T06:13:08;1.00;99.90
33460;DHT22;19795;53.160;6.612;2023-02-10T06:15:33;1.00;99.90
33460;DHT22;19795;53.160;6.612;2023-02-10T06:17:59;1.10;99.90
33460;DHT22;19795;53.160;6.612;2023-02-10T06:20:25;1.10;99.90
33460;DHT22;19795;53.160;6.612;2023-02-10T06:22:51;1.10;99.90
33460;DHT22;19795;53.160;6.612;2023-02-10T06:25:16;1.20;99.90
33460;DHT22;19795;53.160;6.612;2023-02-10T06:27:42;1.30;99.90
33460;DHT22;19795;53.160;6.612;2023-02-10T06:30:08;1.30;99.90
33460;DHT22;19795;53.160;6.612;2023-02-10T06:32:34;1.40;99.90
33460;DHT22;19795;53.160;6.612;2023-02-10T06:35:00;1.40;99.90
33460;DHT22;19795;53.160;6.612;2023-02-10T06:37:26;1.50;99.90
33460;DHT22;19795;53.160;6.612;2023-02-10T06:39:51;1.50;99.90
33460;DHT22;19795;53.160;6.612;2023-02-10T06:42:17;1.60;99.90
33460;DHT22;19795;53.160;6.612;2023-02-10T06:44:43;1.50;99.90
33460;DHT22;19795;53.160;6.612;2023-02-10T06:47:09;1.60;99.90
33460;DHT22;19795;53.160;6.612;2023-02-10T06:49:34;1.60;99.90
33460;DHT22;19795;53.160;6.612;2023-02-10T06:52:00;1.50;99.90
33460;DHT22;19795;53.160;6.612;2023-02-10T06:54:26;1.50;99.90
33460;DHT22;19795;53.160;6.612;2023-02-10T06:56:51;1.50;99.90
33460;DHT22;19795;53.160;6.612;2023-02-10T06:59:17;1.60;99.90
33460;DHT22;19795;53.160;6.612;2023-02-10T07:01:43;1.60;99.90
33460;DHT22;19795;53.160;6.612;2023-02-10T07:04:09;1.60;99.90
33460;DHT22;19795;53.160;6.612;2023-02-10T07:06:35;1.60;99.90
33460;DHT22;19795;53.160;6.612;2023-02-10T07:09:00;1.60;99.90
33460;DHT22;19795;53.160;6.612;2023-02-10T07:11:28;1.60;99.90
33460;DHT22;19795;53.160;6.612;2023-02-10T07:13:53;1.60;99.90
33460;DHT22;19795;53.160;6.612;2023-02-10T07:16:19;1.90;99.90
33460;DHT22;19795;53.160;6.612;2023-02-10T07:18:45;1.70;99.90
33460;DHT22;19795;53.160;6.612;2023-02-10T07:21:10;1.60;99.90
33460;DHT22;19795;53.160;6.612;2023-02-10T07:23:36;1.70;99.90
33460;DHT22;19795;53.160;6.612;2023-02-10T07:26:02;1.80;99.90
33460;DHT22;19795;53.160;6.612;2023-02-10T07:28:28;1.90;99.90
33460;DHT22;19795;53.160;6.612;2023-02-10T07:30:53;1.90;99.90
33460;DHT22;19795;53.160;6.612;2023-02-10T07:33:19;1.90;99.90
33460;DHT22;19795;53.160;6.612;2023-02-10T07:35:45;2.20;99.90
33460;DHT22;19795;53.160;6.612;2023-02-10T07:38:10;2.00;99.90
33460;DHT22;19795;53.160;6.612;2023-02-10T07:40:36;2.00;99.90
33460;DHT22;19795;53.160;6.612;2023-02-10T07:43:02;2.00;99.90
33460;DHT22;19795;53.160;6.612;2023-02-10T07:45:27;2.10;99.90
33460;DHT22;19795;53.160;6.612;2023-02-10T07:47:59;2.10;99.90
33460;DHT22;19795;53.160;6.612;2023-02-10T07:50:25;2.10;99.90
33460;DHT22;19795;53.160;6.612;2023-02-10T07:52:51;2.10;99.90
33460;DHT22;19795;53.160;6.612;2023-02-10T07:55:18;2.20;99.90
33460;DHT22;19795;53.160;6.612;2023-02-10T07:57:43;2.30;99.90
33460;DHT22;19795;53.160;6.612;2023-02-10T08:00:09;2.60;99.90
33460;DHT22;19795;53.160;6.612;2023-02-10T08:02:37;2.40;99.90
33460;DHT22;19795;53.160;6.612;2023-02-10T08:05:03;2.40;99.90
33460;DHT22;19795;53.160;6.612;2023-02-10T08:07:29;2.50;99.90
33460;DHT22;19795;53.160;6.612;2023-02-10T08:09:54;2.50;99.90
33460;DHT22;19795;53.160;6.612;2023-02-10T08:12:20;2.70;99.90
33460;DHT22;19795;53.160;6.612;2023-02-10T08:14:46;2.80;99.90
33460;DHT22;19795;53.160;6.612;2023-02-10T08:17:12;2.90;99.90
33460;DHT22;19795;53.160;6.612;2023-02-10T08:19:37;3.00;99.90
33460;DHT22;19795;53.160;6.612;2023-02-10T08:22:06;2.90;99.90
33460;DHT22;19795;53.160;6.612;2023-02-10T08:24:32;3.00;99.90
33460;DHT22;19795;53.160;6.612;2023-02-10T08:26:57;3.00;99.90
33460;DHT22;19795;53.160;6.612;2023-02-10T08:29:23;3.00;99.90
33460;DHT22;19795;53.160;6.612;2023-02-10T08:31:49;3.00;99.90
33460;DHT22;19795;53.160;6.612;2023-02-10T08:34:17;3.10;99.90
33460;DHT22;19795;53.160;6.612;2023-02-10T08:36:44;3.00;99.90
33460;DHT22;19795;53.160;6.612;2023-02-10T08:39:11;3.10;99.90
33460;DHT22;19795;53.160;6.612;2023-02-10T08:41:37;3.30;99.90
33460;DHT22;19795;53.160;6.612;2023-02-10T08:44:02;3.30;99.90
33460;DHT22;19795;53.160;6.612;2023-02-10T08:46:28;3.60;99.90
33460;DHT22;19795;53.160;6.612;2023-02-10T08:48:54;3.30;99.90
33460;DHT22;19795;53.160;6.612;2023-02-10T08:51:20;3.40;99.90
33460;DHT22;19795;53.160;6.612;2023-02-10T08:53:46;3.40;99.90
33460;DHT22;19795;53.160;6.612;2023-02-10T08:56:15;3.30;99.90
33460;DHT22;19795;53.160;6.612;2023-02-10T08:58:42;3.70;99.90
33460;DHT22;19795;53.160;6.612;2023-02-10T09:01:14;3.30;99.90
33460;DHT22;19795;53.160;6.612;2023-02-10T09:03:40;3.20;99.90
33460;DHT22;19795;53.160;6.612;2023-02-10T09:06:19;3.10;99.90
33460;DHT22;19795;53.160;6.612;2023-02-10T09:08:46;3.10;99.90
33460;DHT22;19795;53.160;6.612;2023-02-10T09:11:13;3.40;99.90
33460;DHT22;19795;53.160;6.612;2023-02-10T09:13:39;3.20;99.90
33460;DHT22;19795;53.160;6.612;2023-02-10T09:16:05;3.50;99.90
33460;DHT22;19795;53.160;6.612;2023-02-10T09:18:31;3.30;99.90
33460;DHT22;19795;53.160;6.612;2023-02-10T09:20:58;3.40;99.90
33460;DHT22;19795;53.160;6.612;2023-02-10T09:23:24;3.40;99.90
33460;DHT22;19795;53.160;6.612;2023-02-10T09:25:58;3.40;99.90
33460;DHT22;19795;53.160;6.612;2023-02-10T09:28:24;3.50;99.90
33460;DHT22;19795;53.160;6.612;2023-02-10T09:30:50;3.60;99.90
33460;DHT22;19795;53.160;6.612;2023-02-10T09:33:17;3.60;99.90
33460;DHT22;19795;53.160;6.612;2023-02-10T09:35:42;3.70;99.90
33460;DHT22;19795;53.160;6.612;2023-02-10T09:38:09;3.80;99.90
33460;DHT22;19795;53.160;6.612;2023-02-10T09:44:25;4.00;99.90
33460;DHT22;19795;53.160;6.612;2023-02-10T09:53:00;4.60;99.90
33460;DHT22;19795;53.160;6.612;2023-02-10T09:55:28;4.70;99.90
33460;DHT22;19795;53.160;6.612;2023-02-10T09:58:14;4.60;99.90
33460;DHT22;19795;53.160;6.612;2023-02-10T10:00:43;4.60;99.90
33460;DHT22;19795;53.160;6.612;2023-02-10T10:03:21;4.70;99.90
33460;DHT22;19795;53.160;6.612;2023-02-10T10:06:29;4.80;99.90
33460;DHT22;19795;53.160;6.612;2023-02-10T10:11:30;4.80;99.90
33460;DHT22;19795;53.160;6.612;2023-02-10T10:13:56;4.80;99.90
33460;DHT22;19795;53.160;6.612;2023-02-10T10:27:22;5.10;99.90
33460;DHT22;19795;53.160;6.612;2023-02-10T10:30:02;5.20;99.90
33460;DHT22;19795;53.160;6.612;2023-02-10T10:32:44;5.30;99.90
33460;DHT22;19795;53.160;6.612;2023-02-10T10:35:17;5.30;99.90
33460;DHT22;19795;53.160;6.612;2023-02-10T10:37:43;5.50;99.90
33460;DHT22;19795;53.160;6.612;2023-02-10T10:40:19;5.70;99.90
33460;DHT22;19795;53.160;6.612;2023-02-10T10:42:55;5.80;99.90
33460;DHT22;19795;53.160;6.612;2023-02-10T10:45:40;6.10;99.90
33460;DHT22;19795;53.160;6.612;2023-02-10T10:48:20;6.40;99.90
33460;DHT22;19795;53.160;6.612;2023-02-10T10:50:50;6.80;99.90
33460;DHT22;19795;53.160;6.612;2023-02-10T10:53:22;7.00;99.90
33460;DHT22;19795;53.160;6.612;2023-02-10T10:55:54;6.90;99.90
33460;DHT22;19795;53.160;6.612;2023-02-10T10:58:31;6.90;99.90
33460;DHT22;19795;53.160;6.612;2023-02-10T11:01:01;7.00;99.90
33460;DHT22;19795;53.160;6.612;2023-02-10T11:03:27;7.10;99.90
33460;DHT22;19795;53.160;6.612;2023-02-10T11:06:11;6.90;99.90
33460;DHT22;19795;53.160;6.612;2023-02-10T11:09:00;6.80;99.90
33460;DHT22;19795;53.160;6.612;2023-02-10T11:11:40;7.10;99.90
33460;DHT22;19795;53.160;6.612;2023-02-10T11:14:39;7.10;99.90
33460;DHT22;19795;53.160;6.612;2023-02-10T11:20:03;7.00;99.90
33460;DHT22;19795;53.160;6.612;2023-02-10T11:22:29;6.90;99.90
33460;DHT22;19795;53.160;6.612;2023-02-10T11:25:16;6.80;99.90
33460;DHT22;19795;53.160;6.612;2023-02-10T11:27:55;6.90;99.90
33460;DHT22;19795;53.160;6.612;2023-02-10T11:30:30;6.80;99.90
33460;DHT22;19795;53.160;6.612;2023-02-10T11:32:56;7.00;99.90
33460;DHT22;19795;53.160;6.612;2023-02-10T11:35:24;7.60;99.90
33460;DHT22;19795;53.160;6.612;2023-02-10T11:37:55;8.10;99.90
33460;DHT22;19795;53.160;6.612;2023-02-10T11:42:56;7.60;99.90
33460;DHT22;19795;53.160;6.612;2023-02-10T11:45:25;7.60;99.90
33460;DHT22;19795;53.160;6.612;2023-02-10T11:50:36;7.80;99.90
33460;DHT22;19795;53.160;6.612;2023-02-10T11:53:02;8.10;99.90
33460;DHT22;19795;53.160;6.612;2023-02-10T11:55:37;8.30;99.90
33460;DHT22;19795;53.160;6.612;2023-02-10T11:58:44;8.40;99.90
33460;DHT22;19795;53.160;6.612;2023-02-10T12:07:20;8.30;99.90
33460;DHT22;19795;53.160;6.612;2023-02-10T12:13:01;7.90;99.90
33460;DHT22;19795;53.160;6.612;2023-02-10T12:15:52;7.70;99.90
33460;DHT22;19795;53.160;6.612;2023-02-10T12:26:51;7.80;99.90
33460;DHT22;19795;53.160;6.612;2023-02-10T12:35:22;7.80;99.90
33460;DHT22;19795;53.160;6.612;2023-02-10T12:38:28;7.90;99.90
33460;DHT22;19795;53.160;6.612;2023-02-10T12:53:22;8.30;99.90
33460;DHT22;19795;53.160;6.612;2023-02-10T12:56:05;8.40;99.90
33460;DHT22;19795;53.160;6.612;2023-02-10T12:58:47;8.40;99.90
33460;DHT22;19795;53.160;6.612;2023-02-10T13:01:35;8.50;99.90
33460;DHT22;19795;53.160;6.612;2023-02-10T13:04:38;8.50;99.90
33460;DHT22;19795;53.160;6.612;2023-02-10T13:10:33;8.30;99.90
33460;DHT22;19795;53.160;6.612;2023-02-10T13:13:25;8.20;99.90
33460;DHT22;19795;53.160;6.612;2023-02-10T13:16:15;8.10;99.90
33460;DHT22;19795;53.160;6.612;2023-02-10T13:21:30;8.00;99.90
33460;DHT22;19795;53.160;6.612;2023-02-10T13:24:15;7.90;99.90
33460;DHT22;19795;53.160;6.612;2023-02-10T13:26:59;7.80;99.90
33460;DHT22;19795;53.160;6.612;2023-02-10T13:32:19;7.70;99.90
33460;DHT22;19795;53.160;6.612;2023-02-10T13:34:53;7.80;99.90
33460;DHT22;19795;53.160;6.612;2023-02-10T13:40:00;7.70;99.90
33460;DHT22;19795;53.160;6.612;2023-02-10T13:42:36;7.80;99.90
33460;DHT22;19795;53.160;6.612;2023-02-10T13:47:37;7.80;99.90
33460;DHT22;19795;53.160;6.612;2023-02-10T13:50:17;8.00;99.90
33460;DHT22;19795;53.160;6.612;2023-02-10T13:52:59;8.00;99.90
33460;DHT22;19795;53.160;6.612;2023-02-10T13:55:28;7.90;99.90
33460;DHT22;19795;53.160;6.612;2023-02-10T14:00:48;7.90;99.90
33460;DHT22;19795;53.160;6.612;2023-02-10T14:06:00;8.10;99.90
33460;DHT22;19795;53.160;6.612;2023-02-10T14:13:34;7.90;99.90
33460;DHT22;19795;53.160;6.612;2023-02-10T14:16:28;7.70;99.90
33460;DHT22;19795;53.160;6.612;2023-02-10T14:18:59;7.80;99.90
33460;DHT22;19795;53.160;6.612;2023-02-10T14:21:26;7.90;99.90
33460;DHT22;19795;53.160;6.612;2023-02-10T14:24:02;7.80;99.90
33460;DHT22;19795;53.160;6.612;2023-02-10T14:26:35;7.80;99.90
33460;DHT22;19795;53.160;6.612;2023-02-10T14:29:02;7.80;99.90
33460;DHT22;19795;53.160;6.612;2023-02-10T14:31:30;7.80;99.90
33460;DHT22;19795;53.160;6.612;2023-02-10T14:34:05;7.60;99.90
33460;DHT22;19795;53.160;6.612;2023-02-10T14:36:31;7.70;99.90
33460;DHT22;19795;53.160;6.612;2023-02-10T14:38:58;7.50;99.90
33460;DHT22;19795;53.160;6.612;2023-02-10T14:41:27;7.50;99.90
33460;DHT22;19795;53.160;6.612;2023-02-10T14:43:54;7.50;99.90
33460;DHT22;19795;53.160;6.612;2023-02-10T14:46:29;7.40;99.90
33460;DHT22;19795;53.160;6.612;2023-02-10T14:49:02;7.40;99.90
33460;DHT22;19795;53.160;6.612;2023-02-10T14:51:29;7.40;99.90
33460;DHT22;19795;53.160;6.612;2023-02-10T14:53:55;7.30;99.90
33460;DHT22;19795;53.160;6.612;2023-02-10T14:56:31;7.10;99.90
33460;DHT22;19795;53.160;6.612;2023-02-10T14:58:57;7.00;99.90
33460;DHT22;19795;53.160;6.612;2023-02-10T15:01:30;7.00;99.90
33460;DHT22;19795;53.160;6.612;2023-02-10T15:03:58;7.00;99.90
33460;DHT22;19795;53.160;6.612;2023-02-10T15:06:27;7.10;99.90
33460;DHT22;19795;53.160;6.612;2023-02-10T15:09:02;7.00;99.90
33460;DHT22;19795;53.160;6.612;2023-02-10T15:11:41;6.90;99.90
33460;DHT22;19795;53.160;6.612;2023-02-10T15:14:44;6.90;99.90
33460;DHT22;19795;53.160;6.612;2023-02-10T15:20:36;6.50;99.90
33460;DHT22;19795;53.160;6.612;2023-02-10T15:23:12;6.50;99.90
33460;DHT22;19795;53.160;6.612;2023-02-10T15:25:38;6.40;99.90
33460;DHT22;19795;53.160;6.612;2023-02-10T15:36:23;6.40;99.90
33460;DHT22;19795;53.160;6.612;2023-02-10T15:41:43;6.30;99.90
33460;DHT22;19795;53.160;6.612;2023-02-10T15:46:46;6.20;99.90
33460;DHT22;19795;53.160;6.612;2023-02-10T15:49:14;6.10;99.90
33460;DHT22;19795;53.160;6.612;2023-02-10T15:51:52;6.00;99.90
33460;DHT22;19795;53.160;6.612;2023-02-10T15:54:23;6.00;99.90
33460;DHT22;19795;53.160;6.612;2023-02-10T15:57:04;5.90;99.90
33460;DHT22;19795;53.160;6.612;2023-02-10T15:59:32;5.90;99.90
33460;DHT22;19795;53.160;6.612;2023-02-10T16:02:00;5.80;99.90
33460;DHT22;19795;53.160;6.612;2023-02-10T16:04:26;5.80;99.90
33460;DHT22;19795;53.160;6.612;2023-02-10T16:06:58;5.90;99.90
33460;DHT22;19795;53.160;6.612;2023-02-10T16:09:24;5.80;99.90
33460;DHT22;19795;53.160;6.612;2023-02-10T16:11:49;5.70;99.90
33460;DHT22;19795;53.160;6.612;2023-02-10T16:14:15;5.70;99.90
33460;DHT22;19795;53.160;6.612;2023-02-10T16:16:44;5.70;99.90
33460;DHT22;19795;53.160;6.612;2023-02-10T16:19:12;5.60;99.90
33460;DHT22;19795;53.160;6.612;2023-02-10T16:21:38;5.70;99.90
33460;DHT22;19795;53.160;6.612;2023-02-10T16:24:04;5.70;99.90
33460;DHT22;19795;53.160;6.612;2023-02-10T16:26:30;5.70;99.90
33460;DHT22;19795;53.160;6.612;2023-02-10T16:28:56;5.70;99.90
33460;DHT22;19795;53.160;6.612;2023-02-10T16:31:22;5.80;99.90
33460;DHT22;19795;53.160;6.612;2023-02-10T16:33:48;5.80;99.90
33460;DHT22;19795;53.160;6.612;2023-02-10T16:36:15;5.90;99.90
33460;DHT22;19795;53.160;6.612;2023-02-10T16:38:42;5.70;99.90
33460;DHT22;19795;53.160;6.612;2023-02-10T16:41:09;5.70;99.90
33460;DHT22;19795;53.160;6.612;2023-02-10T16:43:35;5.70;99.90
33460;DHT22;19795;53.160;6.612;2023-02-10T16:46:00;5.60;99.90
33460;DHT22;19795;53.160;6.612;2023-02-10T16:48:26;5.50;99.90
33460;DHT22;19795;53.160;6.612;2023-02-10T16:50:52;5.50;99.90
33460;DHT22;19795;53.160;6.612;2023-02-10T16:53:17;5.40;99.90
33460;DHT22;19795;53.160;6.612;2023-02-10T16:55:43;5.30;99.90
33460;DHT22;19795;53.160;6.612;2023-02-10T16:58:14;5.20;99.90
33460;DHT22;19795;53.160;6.612;2023-02-10T17:00:40;5.20;99.90
33460;DHT22;19795;53.160;6.612;2023-02-10T17:03:06;5.10;99.90
33460;DHT22;19795;53.160;6.612;2023-02-10T17:05:32;5.00;99.90
33460;DHT22;19795;53.160;6.612;2023-02-10T17:07:59;4.90;99.90
33460;DHT22;19795;53.160;6.612;2023-02-10T17:10:28;4.90;99.90
33460;DHT22;19795;53.160;6.612;2023-02-10T17:12:55;5.00;99.90
33460;DHT22;19795;53.160;6.612;2023-02-10T17:15:22;4.90;99.90
33460;DHT22;19795;53.160;6.612;2023-02-10T17:17:48;5.00;99.90
33460;DHT22;19795;53.160;6.612;2023-02-10T17:20:29;5.00;99.90
33460;DHT22;19795;53.160;6.612;2023-02-10T17:22:55;5.10;99.90
33460;DHT22;19795;53.160;6.612;2023-02-10T17:25:22;5.10;99.90
33460;DHT22;19795;53.160;6.612;2023-02-10T17:27:49;5.20;99.90
33460;DHT22;19795;53.160;6.612;2023-02-10T17:30:17;5.20;99.90
33460;DHT22;19795;53.160;6.612;2023-02-10T17:32:44;5.30;99.90
33460;DHT22;19795;53.160;6.612;2023-02-10T17:35:12;5.30;99.90
33460;DHT22;19795;53.160;6.612;2023-02-10T17:37:38;5.40;99.90
33460;DHT22;19795;53.160;6.612;2023-02-10T17:40:05;5.50;99.90
33460;DHT22;19795;53.160;6.612;2023-02-10T17:42:36;5.40;99.90
33460;DHT22;19795;53.160;6.612;2023-02-10T17:45:02;5.40;99.90
33460;DHT22;19795;53.160;6.612;2023-02-10T17:47:27;5.50;99.90
33460;DHT22;19795;53.160;6.612;2023-02-10T17:49:53;5.50;99.90
33460;DHT22;19795;53.160;6.612;2023-02-10T17:52:18;5.50;99.90
33460;DHT22;19795;53.160;6.612;2023-02-10T17:54:44;5.50;99.90
33460;DHT22;19795;53.160;6.612;2023-02-10T17:57:11;5.40;99.90
33460;DHT22;19795;53.160;6.612;2023-02-10T17:59:42;5.40;99.90
33460;DHT22;19795;53.160;6.612;2023-02-10T18:02:12;5.40;99.90
33460;DHT22;19795;53.160;6.612;2023-02-10T18:04:41;5.50;99.90
33460;DHT22;19795;53.160;6.612;2023-02-10T18:07:09;5.40;99.90
33460;DHT22;19795;53.160;6.612;2023-02-10T18:09:35;5.40;99.90
33460;DHT22;19795;53.160;6.612;2023-02-10T18:12:01;5.40;99.90
33460;DHT22;19795;53.160;6.612;2023-02-10T18:14:30;5.40;99.90
33460;DHT22;19795;53.160;6.612;2023-02-10T18:16:59;5.40;99.90
33460;DHT22;19795;53.160;6.612;2023-02-10T18:19:29;5.40;99.90
33460;DHT22;19795;53.160;6.612;2023-02-10T18:21:55;5.40;99.90
33460;DHT22;19795;53.160;6.612;2023-02-10T18:24:21;5.30;99.90
33460;DHT22;19795;53.160;6.612;2023-02-10T18:26:47;5.20;99.90
33460;DHT22;19795;53.160;6.612;2023-02-10T18:29:12;5.20;99.90
33460;DHT22;19795;53.160;6.612;2023-02-10T18:31:38;5.20;99.90
33460;DHT22;19795;53.160;6.612;2023-02-10T18:34:04;5.20;99.90
33460;DHT22;19795;53.160;6.612;2023-02-10T18:36:31;5.10;99.90
33460;DHT22;19795;53.160;6.612;2023-02-10T18:38:57;5.10;99.90
33460;DHT22;19795;53.160;6.612;2023-02-10T18:41:23;5.10;99.90
33460;DHT22;19795;53.160;6.612;2023-02-10T18:43:49;5.10;99.90
33460;DHT22;19795;53.160;6.612;2023-02-10T18:46:16;5.20;99.90
33460;DHT22;19795;53.160;6.612;2023-02-10T18:48:44;5.20;99.90
33460;DHT22;19795;53.160;6.612;2023-02-10T18:51:11;5.20;99.90
33460;DHT22;19795;53.160;6.612;2023-02-10T18:53:37;5.30;99.90
33460;DHT22;19795;53.160;6.612;2023-02-10T18:56:07;5.20;99.90
33460;DHT22;19795;53.160;6.612;2023-02-10T18:58:33;5.40;99.90
33460;DHT22;19795;53.160;6.612;2023-02-10T19:01:07;5.50;99.90
33460;DHT22;19795;53.160;6.612;2023-02-10T19:03:34;5.50;99.90
33460;DHT22;19795;53.160;6.612;2023-02-10T19:06:01;5.60;99.90
33460;DHT22;19795;53.160;6.612;2023-02-10T19:08:27;5.60;99.90
33460;DHT22;19795;53.160;6.612;2023-02-10T19:11:01;5.70;99.90
33460;DHT22;19795;53.160;6.612;2023-02-10T19:13:27;5.70;99.90
33460;DHT22;19795;53.160;6.612;2023-02-10T19:15:54;5.70;99.90
33460;DHT22;19795;53.160;6.612;2023-02-10T19:18:19;5.70;99.90
33460;DHT22;19795;53.160;6.612;2023-02-10T19:20:45;5.70;99.90
33460;DHT22;19795;53.160;6.612;2023-02-10T19:23:11;5.70;99.90
33460;DHT22;19795;53.160;6.612;2023-02-10T19:25:36;5.70;99.90
33460;DHT22;19795;53.160;6.612;2023-02-10T19:28:02;5.70;99.90
33460;DHT22;19795;53.160;6.612;2023-02-10T19:30:28;5.70;99.90
33460;DHT22;19795;53.160;6.612;2023-02-10T19:32:53;5.70;99.90
33460;DHT22;19795;53.160;6.612;2023-02-10T19:35:19;5.70;99.90
33460;DHT22;19795;53.160;6.612;2023-02-10T19:37:45;5.60;99.90
33460;DHT22;19795;53.160;6.612;2023-02-10T19:40:11;5.70;99.90
33460;DHT22;19795;53.160;6.612;2023-02-10T19:42:39;5.60;99.90
33460;DHT22;19795;53.160;6.612;2023-02-10T19:45:05;5.70;99.90
33460;DHT22;19795;53.160;6.612;2023-02-10T19:47:33;5.60;99.90
33460;DHT22;19795;53.160;6.612;2023-02-10T19:49:58;5.70;99.90
33460;DHT22;19795;53.160;6.612;2023-02-10T19:52:24;5.70;99.90
33460;DHT22;19795;53.160;6.612;2023-02-10T19:54:50;5.70;99.90
33460;DHT22;19795;53.160;6.612;2023-02-10T19:57:16;5.70;99.90
33460;DHT22;19795;53.160;6.612;2023-02-10T19:59:42;5.80;99.90
33460;DHT22;19795;53.160;6.612;2023-02-10T20:02:08;5.70;99.90
33460;DHT22;19795;53.160;6.612;2023-02-10T20:04:34;5.70;99.90
33460;DHT22;19795;53.160;6.612;2023-02-10T20:07:00;5.60;99.90
33460;DHT22;19795;53.160;6.612;2023-02-10T20:09:26;5.70;99.90
33460;DHT22;19795;53.160;6.612;2023-02-10T20:11:51;5.80;99.90
33460;DHT22;19795;53.160;6.612;2023-02-10T20:14:17;5.70;99.90
33460;DHT22;19795;53.160;6.612;2023-02-10T20:16:44;5.70;99.90
33460;DHT22;19795;53.160;6.612;2023-02-10T20:19:11;5.60;99.90
33460;DHT22;19795;53.160;6.612;2023-02-10T20:21:39;5.80;99.90
33460;DHT22;19795;53.160;6.612;2023-02-10T20:24:05;5.70;99.90
33460;DHT22;19795;53.160;6.612;2023-02-10T20:26:31;5.70;99.90
33460;DHT22;19795;53.160;6.612;2023-02-10T20:28:57;5.70;99.90
33460;DHT22;19795;53.160;6.612;2023-02-10T20:31:22;5.70;99.90
33460;DHT22;19795;53.160;6.612;2023-02-10T20:33:49;5.80;99.90
33460;DHT22;19795;53.160;6.612;2023-02-10T20:36:16;5.80;99.90
33460;DHT22;19795;53.160;6.612;2023-02-10T20:38:44;5.80;99.90
33460;DHT22;19795;53.160;6.612;2023-02-10T20:41:12;5.80;99.90
33460;DHT22;19795;53.160;6.612;2023-02-10T20:43:38;5.70;99.90
33460;DHT22;19795;53.160;6.612;2023-02-10T20:46:06;5.70;99.90
33460;DHT22;19795;53.160;6.612;2023-02-10T20:48:32;5.80;99.90
33460;DHT22;19795;53.160;6.612;2023-02-10T20:51:03;5.80;99.90
33460;DHT22;19795;53.160;6.612;2023-02-10T20:53:29;5.80;99.90
33460;DHT22;19795;53.160;6.612;2023-02-10T20:55:56;5.70;99.90
33460;DHT22;19795;53.160;6.612;2023-02-10T20:58:22;5.80;99.90
33460;DHT22;19795;53.160;6.612;2023-02-10T21:00:48;5.80;99.90
33460;DHT22;19795;53.160;6.612;2023-02-10T21:03:14;5.80;99.90
33460;DHT22;19795;53.160;6.612;2023-02-10T21:05:40;5.80;99.90
33460;DHT22;19795;53.160;6.612;2023-02-10T21:08:06;5.80;99.90
33460;DHT22;19795;53.160;6.612;2023-02-10T21:10:32;5.80;99.90
33460;DHT22;19795;53.160;6.612;2023-02-10T21:12:57;5.90;99.90
33460;DHT22;19795;53.160;6.612;2023-02-10T21:15:23;5.80;99.90
33460;DHT22;19795;53.160;6.612;2023-02-10T21:17:50;5.80;99.90
33460;DHT22;19795;53.160;6.612;2023-02-10T21:20:15;5.90;99.90
33460;DHT22;19795;53.160;6.612;2023-02-10T21:22:41;6.00;99.90
33460;DHT22;19795;53.160;6.612;2023-02-10T21:25:07;5.90;99.90
33460;DHT22;19795;53.160;6.612;2023-02-10T21:27:38;5.90;99.90
33460;DHT22;19795;53.160;6.612;2023-02-10T21:30:06;5.90;99.90
33460;DHT22;19795;53.160;6.612;2023-02-10T21:32:33;5.90;99.90
33460;DHT22;19795;53.160;6.612;2023-02-10T21:34:59;5.90;99.90
33460;DHT22;19795;53.160;6.612;2023-02-10T21:37:25;6.00;99.90
33460;DHT22;19795;53.160;6.612;2023-02-10T21:39:51;6.00;99.90
33460;DHT22;19795;53.160;6.612;2023-02-10T21:42:18;5.90;99.90
33460;DHT22;19795;53.160;6.612;2023-02-10T21:44:44;6.00;99.90
33460;DHT22;19795;53.160;6.612;2023-02-10T21:47:10;5.90;99.90
33460;DHT22;19795;53.160;6.612;2023-02-10T21:49:37;5.90;99.90
33460;DHT22;19795;53.160;6.612;2023-02-10T21:52:05;6.00;99.90
33460;DHT22;19795;53.160;6.612;2023-02-10T21:54:35;6.00;99.90
33460;DHT22;19795;53.160;6.612;2023-02-10T21:57:01;6.10;99.90
33460;DHT22;19795;53.160;6.612;2023-02-10T21:59:28;6.00;99.90
33460;DHT22;19795;53.160;6.612;2023-02-10T22:01:54;6.00;99.90
33460;DHT22;19795;53.160;6.612;2023-02-10T22:04:20;6.00;99.90
33460;DHT22;19795;53.160;6.612;2023-02-10T22:06:45;6.00;99.90
33460;DHT22;19795;53.160;6.612;2023-02-10T22:09:15;6.00;99.90
33460;DHT22;19795;53.160;6.612;2023-02-10T22:11:41;6.00;99.90
33460;DHT22;19795;53.160;6.612;2023-02-10T22:14:07;6.00;99.90
33460;DHT22;19795;53.160;6.612;2023-02-10T22:16:32;5.90;99.90
33460;DHT22;19795;53.160;6.612;2023-02-10T22:18:58;6.00;99.90
33460;DHT22;19795;53.160;6.612;2023-02-10T22:21:24;6.00;99.90
33460;DHT22;19795;53.160;6.612;2023-02-10T22:23:53;6.00;99.90
33460;DHT22;19795;53.160;6.612;2023-02-10T22:26:20;6.00;99.90
33460;DHT22;19795;53.160;6.612;2023-02-10T22:28:47;6.00;99.90
33460;DHT22;19795;53.160;6.612;2023-02-10T22:31:19;6.00;99.90
33460;DHT22;19795;53.160;6.612;2023-02-10T22:33:48;6.00;99.90
33460;DHT22;19795;53.160;6.612;2023-02-10T22:36:14;6.10;99.90
